Wathena, Kansas
Current Conditions -  °F | °C
As of 6:53 AM on Saturday 25 Oct 2014 (Local Time) from KSTJ Reporting Station
Moderate Fog Moderate Fog  
Wind Chill: 50°   Ceiling: 100
Heat Index: 50°   Visibility: 0.25mi
Dew Point: 50°   Wind: 0mph
Humidity: 100%   Direction: NA
Pressure: 30.05"   Gusts: NA
Location:  39.76°N, 94.95°W
Report Text: KSTJ 251153Z AUTO 00000KT 1/4SM R35/0700V1000FT FG VV001 10/10 A3005 RMK AO2 SLP174 T01000100 10128 20089 53011
Loading
Personal Weather Stations






























Interactive Weather Map
Tropical Storm Tracking
New forecast layout! Learn more

10-Day Weather Forecast

Advertisements
Track Severe Weather on mobile